This is the latest recevied weather packets stored in our database for station/object DO7ZT-10. If no packets are shown the sender has not sent any weather packets the latest 10 day(s).
| Time | Temp. | Humidity | Pressure | Rain* | Wind** | Luminosity | Snow |
|---|---|---|---|---|---|---|---|
| 1777587481 | 6.11° C | 73% | 1028.9 hPa | - | - | - | - |
| 1777586581 | 6.67° C | 70% | 1028.8 hPa | - | - | - | - |
| 1777585681 | 6.67° C | 70% | 1028.8 hPa | - | - | - | - |
| 1777584781 | 6.67° C | 69% | 1028.8 hPa | - | - | - | - |
| 1777583881 | 7.22° C | 68% | 1028.8 hPa | - | - | - | - |
| 1777582981 | 7.22° C | 67% | 1028.8 hPa | - | - | - | - |
| 1777582081 | 7.78° C | 66% | 1028.9 hPa | - | - | - | - |
| 1777581181 | 7.78° C | 66% | 1028.9 hPa | - | - | - | - |
| 1777580281 | 7.78° C | 66% | 1028.9 hPa | - | - | - | - |
| 1777579381 | 8.33° C | 62% | 1028.9 hPa | - | - | - | - |
| 1777578481 | 8.89° C | 61% | 1028.8 hPa | - | - | - | - |
| 1777577581 | 8.89° C | 61% | 1028.8 hPa | - | - | - | - |
| 1777576680 | 10° C | 58% | 1028.7 hPa | - | - | - | - |
| 1777575780 | 11.11° C | 54% | 1028.6 hPa | - | - | - | - |
| 1777574880 | 12.22° C | 51% | 1028.6 hPa | - | - | - | - |
| 1777573980 | 12.78° C | 52% | 1028.7 hPa | - | - | - | - |
| 1777573080 | 13.33° C | 48% | 1028.5 hPa | - | - | - | - |
| 1777572180 | 13.89° C | 50% | 1028.6 hPa | - | - | - | - |
| 1777571280 | 15° C | 40% | 1028.5 hPa | - | - | - | - |
| 1777570380 | 15° C | 37% | 1028.5 hPa | - | - | - | - |
| 1777569480 | 15° C | 36% | 1028.5 hPa | - | - | - | - |
| 1777568580 | 15.56° C | 35% | 1028.4 hPa | - | - | - | - |
| 1777567680 | 16.11° C | 33% | 1028.4 hPa | - | - | - | - |
| 1777566780 | 16.11° C | 34% | 1028.4 hPa | - | - | - | - |
| 1777565880 | 16.11° C | 34% | 1028.5 hPa | - | - | - | - |
* Rain since midnight (hover to see other rain measurements)
** Current wind speed in m/s (hover to see current wind gust speed)